sensor_id;sensor_type;location;lat;lon;timestamp;pressure;altitude;pressure_sealevel;temperature;humidity
63665;BME280;49820;33.966;73.390;2023-07-29T02:36:24;78351.50;;;13.61;100.00
63665;BME280;49820;33.966;73.390;2023-07-29T02:38:54;78344.00;;;13.81;100.00
63665;BME280;49820;33.966;73.390;2023-07-29T02:41:24;78314.81;;;13.72;100.00
63665;BME280;49820;33.966;73.390;2023-07-29T02:43:53;78320.72;;;13.92;100.00
63665;BME280;49820;33.966;73.390;2023-07-29T02:46:22;78348.75;;;14.28;100.00
63665;BME280;49820;33.966;73.390;2023-07-29T02:48:51;78315.63;;;14.65;100.00
63665;BME280;49820;33.966;73.390;2023-07-29T02:51:20;78332.22;;;15.16;100.00
63665;BME280;49820;33.966;73.390;2023-07-29T02:53:50;78324.22;;;14.99;100.00
63665;BME280;49820;33.966;73.390;2023-07-29T02:56:19;78331.06;;;14.96;100.00
63665;BME280;49820;33.966;73.390;2023-07-29T02:58:48;78353.91;;;15.12;100.00
63665;BME280;49820;33.966;73.390;2023-07-29T03:21:26;78339.41;;;19.62;100.00
63665;BME280;49820;33.966;73.390;2023-07-29T03:23:55;78348.81;;;19.87;100.00
63665;BME280;49820;33.966;73.390;2023-07-29T03:26:24;78340.84;;;19.95;100.00
63665;BME280;49820;33.966;73.390;2023-07-29T03:28:54;78338.03;;;20.42;100.00
63665;BME280;49820;33.966;73.390;2023-07-29T03:31:23;78355.03;;;20.74;100.00
63665;BME280;49820;33.966;73.390;2023-07-29T03:33:52;78350.13;;;20.98;100.00
63665;BME280;49820;33.966;73.390;2023-07-29T03:36:21;78351.41;;;20.99;100.00
63665;BME280;49820;33.966;73.390;2023-07-29T03:38:51;78358.25;;;21.41;100.00
63665;BME280;49820;33.966;73.390;2023-07-29T03:41:21;78338.75;;;21.17;100.00
63665;BME280;49820;33.966;73.390;2023-07-29T03:43:50;78361.09;;;21.70;100.00
63665;BME280;49820;33.966;73.390;2023-07-29T03:46:19;78347.72;;;21.88;100.00
63665;BME280;49820;33.966;73.390;2023-07-29T03:48:50;78346.66;;;22.04;100.00
63665;BME280;49820;33.966;73.390;2023-07-29T03:51:19;78348.78;;;21.72;100.00
63665;BME280;49820;33.966;73.390;2023-07-29T03:53:50;78368.56;;;22.02;100.00
63665;BME280;49820;33.966;73.390;2023-07-29T03:56:19;78363.22;;;22.11;100.00
63665;BME280;49820;33.966;73.390;2023-07-29T03:58:48;78343.69;;;22.38;100.00
63665;BME280;49820;33.966;73.390;2023-07-29T04:01:17;78340.13;;;22.50;100.00
63665;BME280;49820;33.966;73.390;2023-07-29T04:03:47;78357.72;;;23.11;100.00
63665;BME280;49820;33.966;73.390;2023-07-29T04:06:16;78365.19;;;23.02;100.00
63665;BME280;49820;33.966;73.390;2023-07-29T04:08:46;78366.81;;;22.88;100.00
63665;BME280;49820;33.966;73.390;2023-07-29T04:11:15;78365.47;;;23.17;100.00
63665;BME280;49820;33.966;73.390;2023-07-29T04:13:46;78365.69;;;23.24;100.00
63665;BME280;49820;33.966;73.390;2023-07-29T04:16:15;78372.13;;;23.29;100.00
63665;BME280;49820;33.966;73.390;2023-07-29T04:18:46;78385.91;;;23.07;100.00
63665;BME280;49820;33.966;73.390;2023-07-29T04:21:15;78382.72;;;23.63;100.00
63665;BME280;49820;33.966;73.390;2023-07-29T04:23:44;78392.91;;;23.53;100.00
63665;BME280;49820;33.966;73.390;2023-07-29T04:26:14;78381.00;;;23.95;100.00
63665;BME280;49820;33.966;73.390;2023-07-29T04:28:43;78373.72;;;23.83;100.00
63665;BME280;49820;33.966;73.390;2023-07-29T04:31:12;78397.41;;;24.79;100.00
63665;BME280;49820;33.966;73.390;2023-07-29T04:33:41;78372.31;;;24.40;100.00
63665;BME280;49820;33.966;73.390;2023-07-29T04:36:11;78395.34;;;24.88;100.00
63665;BME280;49820;33.966;73.390;2023-07-29T04:38:43;78369.88;;;24.36;100.00
63665;BME280;49820;33.966;73.390;2023-07-29T04:41:12;78363.13;;;24.71;100.00
63665;BME280;49820;33.966;73.390;2023-07-29T04:43:42;78408.22;;;25.35;100.00
63665;BME280;49820;33.966;73.390;2023-07-29T04:46:15;78389.31;;;25.67;100.00
63665;BME280;49820;33.966;73.390;2023-07-29T04:48:44;78392.69;;;25.68;94.73
63665;BME280;49820;33.966;73.390;2023-07-29T04:51:13;78393.19;;;25.88;90.76
63665;BME280;49820;33.966;73.390;2023-07-29T04:53:41;78420.56;;;25.88;100.00
63665;BME280;49820;33.966;73.390;2023-07-29T04:56:11;78418.13;;;25.75;97.75
63665;BME280;49820;33.966;73.390;2023-07-29T04:58:45;78419.84;;;25.53;94.06
63665;BME280;49820;33.966;73.390;2023-07-29T05:01:14;78399.97;;;26.23;96.80
63665;BME280;49820;33.966;73.390;2023-07-29T05:03:44;78398.66;;;25.88;87.98
63665;BME280;49820;33.966;73.390;2023-07-29T05:06:14;78418.50;;;26.31;96.09
63665;BME280;49820;33.966;73.390;2023-07-29T05:08:46;78395.44;;;26.19;87.12
63665;BME280;49820;33.966;73.390;2023-07-29T05:11:16;78393.69;;;26.25;98.20
63665;BME280;49820;33.966;73.390;2023-07-29T05:13:48;78413.97;;;26.19;87.68
63665;BME280;49820;33.966;73.390;2023-07-29T05:16:17;78400.59;;;26.06;85.45
63665;BME280;49820;33.966;73.390;2023-07-29T05:18:47;78412.16;;;26.76;82.67
63665;BME280;49820;33.966;73.390;2023-07-29T05:21:16;78398.34;;;26.43;85.30
63665;BME280;49820;33.966;73.390;2023-07-29T05:23:48;78397.53;;;26.19;85.54
63665;BME280;49820;33.966;73.390;2023-07-29T05:26:17;78411.59;;;26.32;93.80
63665;BME280;49820;33.966;73.390;2023-07-29T05:28:46;78414.81;;;26.26;79.88
63665;BME280;49820;33.966;73.390;2023-07-29T05:31:15;78400.59;;;26.23;76.51
63665;BME280;49820;33.966;73.390;2023-07-29T05:33:44;78406.38;;;26.80;76.24
63665;BME280;49820;33.966;73.390;2023-07-29T05:36:14;78387.03;;;26.73;85.07
63665;BME280;49820;33.966;73.390;2023-07-29T05:38:43;78406.22;;;26.73;85.61
63665;BME280;49820;33.966;73.390;2023-07-29T05:41:13;78417.44;;;27.12;75.23
63665;BME280;49820;33.966;73.390;2023-07-29T05:43:41;78419.22;;;27.57;72.46
63665;BME280;49820;33.966;73.390;2023-07-29T05:46:12;78422.25;;;27.20;75.29
63665;BME280;49820;33.966;73.390;2023-07-29T05:48:41;78422.34;;;27.35;77.90
63665;BME280;49820;33.966;73.390;2023-07-29T05:51:10;78444.38;;;28.00;83.96
63665;BME280;49820;33.966;73.390;2023-07-29T05:53:40;78425.06;;;27.85;70.40
63665;BME280;49820;33.966;73.390;2023-07-29T05:56:09;78415.19;;;27.06;78.11
63665;BME280;49820;33.966;73.390;2023-07-29T05:58:39;78435.13;;;28.13;72.67
63665;BME280;49820;33.966;73.390;2023-07-29T06:01:07;78407.19;;;27.37;77.98
63665;BME280;49820;33.966;73.390;2023-07-29T06:03:37;78446.91;;;27.79;77.16
63665;BME280;49820;33.966;73.390;2023-07-29T06:06:06;78429.31;;;27.76;74.84
63665;BME280;49820;33.966;73.390;2023-07-29T06:08:35;78444.03;;;27.22;74.60
63665;BME280;49820;33.966;73.390;2023-07-29T06:11:04;78430.03;;;27.59;77.08
63665;BME280;49820;33.966;73.390;2023-07-29T06:13:34;78432.81;;;28.15;78.59
63665;BME280;49820;33.966;73.390;2023-07-29T06:16:04;78434.81;;;27.76;69.11
63665;BME280;49820;33.966;73.390;2023-07-29T06:18:33;78390.59;;;27.30;73.63
63665;BME280;49820;33.966;73.390;2023-07-29T06:21:04;78418.06;;;28.51;73.90
63665;BME280;49820;33.966;73.390;2023-07-29T06:23:37;78438.28;;;28.47;68.69
63665;BME280;49820;33.966;73.390;2023-07-29T06:26:07;78432.63;;;29.12;68.92
63665;BME280;49820;33.966;73.390;2023-07-29T06:28:37;78433.53;;;29.02;70.73
63665;BME280;49820;33.966;73.390;2023-07-29T06:31:07;78432.28;;;29.16;68.58
63665;BME280;49820;33.966;73.390;2023-07-29T06:33:37;78446.34;;;28.97;71.35
63665;BME280;49820;33.966;73.390;2023-07-29T06:36:06;78445.16;;;29.03;70.12
63665;BME280;49820;33.966;73.390;2023-07-29T06:38:35;78453.75;;;29.22;71.01
63665;BME280;49820;33.966;73.390;2023-07-29T06:41:05;78407.22;;;29.27;68.01
63665;BME280;49820;33.966;73.390;2023-07-29T06:43:33;78447.00;;;29.37;62.73
63665;BME280;49820;33.966;73.390;2023-07-29T06:46:05;78449.34;;;28.87;63.96
63665;BME280;49820;33.966;73.390;2023-07-29T06:48:34;78439.13;;;29.48;68.56
63665;BME280;49820;33.966;73.390;2023-07-29T06:51:03;78429.84;;;29.67;69.19
63665;BME280;49820;33.966;73.390;2023-07-29T06:53:32;78452.53;;;29.67;70.40
63665;BME280;49820;33.966;73.390;2023-07-29T06:56:01;78444.06;;;29.39;68.18
63665;BME280;49820;33.966;73.390;2023-07-29T06:58:31;78438.66;;;29.91;69.05
63665;BME280;49820;33.966;73.390;2023-07-29T07:01:00;78441.59;;;30.04;65.60
63665;BME280;49820;33.966;73.390;2023-07-29T07:03:33;78450.88;;;29.70;65.64
63665;BME280;49820;33.966;73.390;2023-07-29T07:06:03;78448.22;;;30.07;69.04
63665;BME280;49820;33.966;73.390;2023-07-29T07:08:33;78446.84;;;29.15;67.39
63665;BME280;49820;33.966;73.390;2023-07-29T07:11:02;78427.84;;;29.74;73.69
63665;BME280;49820;33.966;73.390;2023-07-29T07:13:31;78448.16;;;31.12;66.00
63665;BME280;49820;33.966;73.390;2023-07-29T07:16:00;78451.97;;;31.15;62.70
63665;BME280;49820;33.966;73.390;2023-07-29T07:18:29;78439.41;;;29.83;64.70
63665;BME280;49820;33.966;73.390;2023-07-29T07:20:58;78435.25;;;27.87;66.66
63665;BME280;49820;33.966;73.390;2023-07-29T07:23:27;78443.59;;;26.77;71.09
63665;BME280;49820;33.966;73.390;2023-07-29T07:26:03;78443.94;;;26.99;72.25
63665;BME280;49820;33.966;73.390;2023-07-29T07:28:35;78453.59;;;29.40;79.76
63665;BME280;49820;33.966;73.390;2023-07-29T07:31:04;78441.50;;;30.50;70.37
63665;BME280;49820;33.966;73.390;2023-07-29T07:33:38;78439.66;;;30.92;63.21
63665;BME280;49820;33.966;73.390;2023-07-29T07:36:09;78451.69;;;30.66;61.84
63665;BME280;49820;33.966;73.390;2023-07-29T07:38:39;78452.09;;;31.50;59.16
63665;BME280;49820;33.966;73.390;2023-07-29T07:41:08;78450.56;;;31.44;58.63
63665;BME280;49820;33.966;73.390;2023-07-29T07:43:37;78440.38;;;29.34;69.19
63665;BME280;49820;33.966;73.390;2023-07-29T07:46:07;78445.25;;;28.14;70.11
63665;BME280;49820;33.966;73.390;2023-07-29T07:48:37;78444.97;;;27.27;74.26
63665;BME280;49820;33.966;73.390;2023-07-29T07:51:13;78461.16;;;27.14;70.80
63665;BME280;49820;33.966;73.390;2023-07-29T07:53:42;78460.88;;;26.75;81.15
63665;BME280;49820;33.966;73.390;2023-07-29T07:56:13;78453.47;;;29.18;85.01
63665;BME280;49820;33.966;73.390;2023-07-29T07:58:42;78444.78;;;27.88;73.01
63665;BME280;49820;33.966;73.390;2023-07-29T08:01:11;78460.09;;;27.93;74.28
63665;BME280;49820;33.966;73.390;2023-07-29T08:03:41;78451.63;;;30.08;73.05
63665;BME280;49820;33.966;73.390;2023-07-29T08:06:10;78462.06;;;29.53;72.14
63665;BME280;49820;33.966;73.390;2023-07-29T08:08:39;78453.22;;;27.77;66.25
63665;BME280;49820;33.966;73.390;2023-07-29T08:11:08;78462.41;;;25.95;74.84
63665;BME280;49820;33.966;73.390;2023-07-29T08:13:47;78463.72;;;24.69;83.38
63665;BME280;49820;33.966;73.390;2023-07-29T08:16:17;78443.56;;;23.70;100.00
63665;BME280;49820;33.966;73.390;2023-07-29T08:18:46;78468.06;;;23.31;100.00
63665;BME280;49820;33.966;73.390;2023-07-29T08:21:16;78442.13;;;23.71;92.56
63665;BME280;49820;33.966;73.390;2023-07-29T08:23:45;78454.13;;;23.35;100.00
63665;BME280;49820;33.966;73.390;2023-07-29T08:26:16;78454.69;;;23.27;100.00
63665;BME280;49820;33.966;73.390;2023-07-29T08:28:45;78430.31;;;22.95;100.00
63665;BME280;49820;33.966;73.390;2023-07-29T08:31:15;78460.22;;;22.35;100.00
63665;BME280;49820;33.966;73.390;2023-07-29T08:33:44;78459.75;;;22.01;100.00
63665;BME280;49820;33.966;73.390;2023-07-29T08:36:13;78458.19;;;22.66;100.00
63665;BME280;49820;33.966;73.390;2023-07-29T08:38:43;78447.09;;;22.38;100.00
63665;BME280;49820;33.966;73.390;2023-07-29T08:41:22;78466.13;;;22.49;100.00
63665;BME280;49820;33.966;73.390;2023-07-29T08:44:06;78439.34;;;22.72;100.00
63665;BME280;49820;33.966;73.390;2023-07-29T08:46:39;78454.28;;;23.82;100.00
63665;BME280;49820;33.966;73.390;2023-07-29T08:49:11;78447.13;;;24.15;100.00
63665;BME280;49820;33.966;73.390;2023-07-29T08:51:47;78456.53;;;26.52;100.00
63665;BME280;49820;33.966;73.390;2023-07-29T08:54:19;78450.53;;;26.84;84.52
63665;BME280;49820;33.966;73.390;2023-07-29T08:56:50;78428.94;;;24.87;81.07
63665;BME280;49820;33.966;73.390;2023-07-29T08:59:20;78455.78;;;24.56;96.68
63665;BME280;49820;33.966;73.390;2023-07-29T09:01:49;78440.03;;;25.75;97.85
63665;BME280;49820;33.966;73.390;2023-07-29T09:04:19;78443.34;;;27.39;71.00
63665;BME280;49820;33.966;73.390;2023-07-29T09:06:53;78436.53;;;28.68;96.30
63665;BME280;49820;33.966;73.390;2023-07-29T09:09:25;78441.94;;;29.39;68.89
63665;BME280;49820;33.966;73.390;2023-07-29T09:11:54;78435.47;;;27.18;73.00
63665;BME280;49820;33.966;73.390;2023-07-29T09:14:24;78446.44;;;25.63;82.72
63665;BME280;49820;33.966;73.390;2023-07-29T09:16:53;78445.03;;;24.91;91.13
63665;BME280;49820;33.966;73.390;2023-07-29T09:19:25;78432.88;;;24.43;100.00
63665;BME280;49820;33.966;73.390;2023-07-29T09:21:55;78429.03;;;24.76;100.00
63665;BME280;49820;33.966;73.390;2023-07-29T09:24:25;78440.88;;;24.64;100.00
63665;BME280;49820;33.966;73.390;2023-07-29T09:26:58;78437.78;;;24.59;100.00
63665;BME280;49820;33.966;73.390;2023-07-29T09:29:28;78424.25;;;26.96;95.53
63665;BME280;49820;33.966;73.390;2023-07-29T09:32:17;78427.31;;;28.15;76.47
63665;BME280;49820;33.966;73.390;2023-07-29T09:34:48;78432.38;;;27.80;91.95
63665;BME280;49820;33.966;73.390;2023-07-29T09:37:24;78423.00;;;26.00;95.32
63665;BME280;49820;33.966;73.390;2023-07-29T09:39:53;78423.19;;;26.33;100.00
63665;BME280;49820;33.966;73.390;2023-07-29T09:42:22;78430.81;;;25.16;86.75
63665;BME280;49820;33.966;73.390;2023-07-29T09:44:57;78404.81;;;26.48;72.95
63665;BME280;49820;33.966;73.390;2023-07-29T09:47:26;78411.59;;;27.66;77.88
63665;BME280;49820;33.966;73.390;2023-07-29T09:49:56;78408.81;;;27.75;64.02
63665;BME280;49820;33.966;73.390;2023-07-29T09:52:26;78360.66;;;26.35;78.09
63665;BME280;49820;33.966;73.390;2023-07-29T09:54:55;78412.59;;;25.58;90.18
63665;BME280;49820;33.966;73.390;2023-07-29T09:57:24;78417.63;;;25.64;100.00
63665;BME280;49820;33.966;73.390;2023-07-29T09:59:56;78406.72;;;26.24;99.33
63665;BME280;49820;33.966;73.390;2023-07-29T10:02:27;78409.16;;;25.31;78.12
63665;BME280;49820;33.966;73.390;2023-07-29T10:04:59;78418.13;;;25.13;90.54
63665;BME280;49820;33.966;73.390;2023-07-29T10:07:30;78417.44;;;25.03;100.00
63665;BME280;49820;33.966;73.390;2023-07-29T10:10:01;78390.66;;;24.50;100.00
63665;BME280;49820;33.966;73.390;2023-07-29T10:12:34;78422.28;;;24.75;100.00
63665;BME280;49820;33.966;73.390;2023-07-29T10:15:05;78408.69;;;24.56;100.00
63665;BME280;49820;33.966;73.390;2023-07-29T10:17:37;78402.31;;;24.31;100.00
63665;BME280;49820;33.966;73.390;2023-07-29T10:20:10;78406.78;;;24.07;100.00
63665;BME280;49820;33.966;73.390;2023-07-29T10:22:45;78397.50;;;23.66;99.87
63665;BME280;49820;33.966;73.390;2023-07-29T10:25:22;78382.19;;;23.02;100.00
63665;BME280;49820;33.966;73.390;2023-07-29T10:28:14;78409.03;;;22.98;100.00
63665;BME280;49820;33.966;73.390;2023-07-29T10:30:46;78402.28;;;22.67;100.00
63665;BME280;49820;33.966;73.390;2023-07-29T10:33:17;78386.28;;;22.12;100.00
63665;BME280;49820;33.966;73.390;2023-07-29T10:35:50;78374.66;;;21.81;100.00
63665;BME280;49820;33.966;73.390;2023-07-29T10:38:24;78371.44;;;21.68;100.00
63665;BME280;49820;33.966;73.390;2023-07-29T10:40:56;78363.31;;;21.57;100.00
63665;BME280;49820;33.966;73.390;2023-07-29T10:43:35;78392.56;;;21.67;100.00
63665;BME280;49820;33.966;73.390;2023-07-29T10:46:34;78394.38;;;23.23;100.00
63665;BME280;49820;33.966;73.390;2023-07-29T10:49:05;78352.44;;;23.67;100.00
63665;BME280;49820;33.966;73.390;2023-07-29T10:51:37;78375.78;;;24.30;100.00
63665;BME280;49820;33.966;73.390;2023-07-29T10:54:14;78369.22;;;24.36;89.87
63665;BME280;49820;33.966;73.390;2023-07-29T10:56:49;78387.78;;;23.39;100.00
63665;BME280;49820;33.966;73.390;2023-07-29T11:01:58;78359.34;;;22.07;100.00
63665;BME280;49820;33.966;73.390;2023-07-29T11:04:31;78379.84;;;21.75;100.00
63665;BME280;49820;33.966;73.390;2023-07-29T11:12:38;78368.88;;;24.03;100.00
63665;BME280;49820;33.966;73.390;2023-07-29T11:17:58;78375.94;;;24.28;84.29
63665;BME280;49820;33.966;73.390;2023-07-29T11:20:30;78366.69;;;23.09;95.74
63665;BME280;49820;33.966;73.390;2023-07-29T11:23:01;78343.28;;;22.44;94.58
63665;BME280;49820;33.966;73.390;2023-07-29T11:25:31;78352.88;;;22.43;89.41
63665;BME280;49820;33.966;73.390;2023-07-29T11:28:13;78373.78;;;22.25;100.00
63665;BME280;49820;33.966;73.390;2023-07-29T11:30:42;78341.22;;;21.93;98.30
63665;BME280;49820;33.966;73.390;2023-07-29T11:33:12;78366.88;;;21.86;100.00
63665;BME280;49820;33.966;73.390;2023-07-29T11:35:41;78350.09;;;21.73;100.00
63665;BME280;49820;33.966;73.390;2023-07-29T11:38:17;78367.78;;;21.93;100.00
63665;BME280;49820;33.966;73.390;2023-07-29T11:41:00;78356.91;;;21.82;100.00
63665;BME280;49820;33.966;73.390;2023-07-29T11:43:35;78345.44;;;21.60;100.00
63665;BME280;49820;33.966;73.390;2023-07-29T11:46:05;78364.59;;;21.69;100.00
63665;BME280;49820;33.966;73.390;2023-07-29T11:48:34;78348.44;;;21.56;100.00
63665;BME280;49820;33.966;73.390;2023-07-29T11:51:03;78363.69;;;21.41;100.00
63665;BME280;49820;33.966;73.390;2023-07-29T11:53:33;78355.69;;;21.39;100.00
63665;BME280;49820;33.966;73.390;2023-07-29T11:56:04;78355.06;;;21.38;100.00
63665;BME280;49820;33.966;73.390;2023-07-29T11:58:35;78368.00;;;21.38;100.00
63665;BME280;49820;33.966;73.390;2023-07-29T12:01:05;78306.91;;;20.62;100.00
63665;BME280;49820;33.966;73.390;2023-07-29T12:03:34;78359.28;;;21.03;100.00
63665;BME280;49820;33.966;73.390;2023-07-29T12:06:04;78373.28;;;21.08;100.00
63665;BME280;49820;33.966;73.390;2023-07-29T12:08:33;78368.72;;;20.83;100.00
63665;BME280;49820;33.966;73.390;2023-07-29T12:11:04;78315.16;;;20.39;100.00
63665;BME280;49820;33.966;73.390;2023-07-29T12:13:33;78370.28;;;20.80;100.00
63665;BME280;49820;33.966;73.390;2023-07-29T12:16:03;78380.34;;;20.71;100.00
63665;BME280;49820;33.966;73.390;2023-07-29T12:18:33;78385.38;;;20.66;100.00
63665;BME280;49820;33.966;73.390;2023-07-29T12:21:03;78388.09;;;20.77;100.00
63665;BME280;49820;33.966;73.390;2023-07-29T12:23:33;78380.28;;;21.37;100.00
63665;BME280;49820;33.966;73.390;2023-07-29T12:26:01;78379.09;;;21.55;100.00
63665;BME280;49820;33.966;73.390;2023-07-29T12:28:31;78340.16;;;21.16;100.00
63665;BME280;49820;33.966;73.390;2023-07-29T12:31:00;78355.69;;;21.17;100.00
63665;BME280;49820;33.966;73.390;2023-07-29T12:33:31;78371.31;;;20.95;100.00
63665;BME280;49820;33.966;73.390;2023-07-29T12:36:01;78374.56;;;20.98;100.00
63665;BME280;49820;33.966;73.390;2023-07-29T12:38:31;78352.69;;;20.79;100.00
63665;BME280;49820;33.966;73.390;2023-07-29T12:41:02;78381.78;;;20.80;100.00
63665;BME280;49820;33.966;73.390;2023-07-29T12:43:31;78380.22;;;20.73;100.00
63665;BME280;49820;33.966;73.390;2023-07-29T12:46:00;78380.06;;;20.64;100.00
63665;BME280;49820;33.966;73.390;2023-07-29T12:48:29;78373.59;;;20.48;100.00
63665;BME280;49820;33.966;73.390;2023-07-29T12:50:58;78381.13;;;20.25;100.00
63665;BME280;49820;33.966;73.390;2023-07-29T12:53:29;78380.53;;;20.11;100.00
63665;BME280;49820;33.966;73.390;2023-07-29T12:55:58;78367.94;;;19.85;100.00
63665;BME280;49820;33.966;73.390;2023-07-29T12:58:30;78382.53;;;19.90;100.00
63665;BME280;49820;33.966;73.390;2023-07-29T13:00:58;78343.91;;;19.55;100.00
63665;BME280;49820;33.966;73.390;2023-07-29T13:03:28;78366.41;;;19.64;100.00
63665;BME280;49820;33.966;73.390;2023-07-29T13:05:58;78385.91;;;19.67;100.00
63665;BME280;49820;33.966;73.390;2023-07-29T13:08:30;78338.59;;;19.30;100.00
63665;BME280;49820;33.966;73.390;2023-07-29T13:10:59;78379.03;;;19.57;100.00
63665;BME280;49820;33.966;73.390;2023-07-29T13:13:29;78387.25;;;19.55;100.00
63665;BME280;49820;33.966;73.390;2023-07-29T13:15:58;78338.38;;;19.11;100.00
63665;BME280;49820;33.966;73.390;2023-07-29T13:18:29;78402.91;;;19.42;100.00
63665;BME280;49820;33.966;73.390;2023-07-29T13:20:58;78392.28;;;19.15;100.00
63665;BME280;49820;33.966;73.390;2023-07-29T13:23:29;78402.34;;;19.16;100.00
63665;BME280;49820;33.966;73.390;2023-07-29T13:25:58;78389.84;;;18.98;100.00
63665;BME280;49820;33.966;73.390;2023-07-29T13:28:27;78390.63;;;18.84;100.00
63665;BME280;49820;33.966;73.390;2023-07-29T13:30:57;78403.97;;;18.75;100.00
63665;BME280;49820;33.966;73.390;2023-07-29T13:33:27;78401.94;;;18.63;100.00
63665;BME280;49820;33.966;73.390;2023-07-29T13:36:09;78411.78;;;18.56;100.00
63665;BME280;49820;33.966;73.390;2023-07-29T13:38:38;78403.56;;;18.33;100.00
63665;BME280;49820;33.966;73.390;2023-07-29T13:41:07;78400.03;;;18.23;100.00
63665;BME280;49820;33.966;73.390;2023-07-29T13:43:38;78401.97;;;18.12;100.00
63665;BME280;49820;33.966;73.390;2023-07-29T13:46:09;78407.13;;;18.16;100.00
63665;BME280;49820;33.966;73.390;2023-07-29T13:48:38;78380.34;;;17.87;100.00
63665;BME280;49820;33.966;73.390;2023-07-29T13:51:08;78397.09;;;17.89;100.00
63665;BME280;49820;33.966;73.390;2023-07-29T13:53:37;78410.59;;;17.89;100.00
63665;BME280;49820;33.966;73.390;2023-07-29T13:56:06;78396.66;;;17.72;100.00
63665;BME280;49820;33.966;73.390;2023-07-29T14:01:24;78422.69;;;17.65;100.00
63665;BME280;49820;33.966;73.390;2023-07-29T14:03:53;78405.97;;;17.48;100.00
63665;BME280;49820;33.966;73.390;2023-07-29T14:06:24;78414.09;;;17.48;100.00
63665;BME280;49820;33.966;73.390;2023-07-29T14:09:11;78424.03;;;17.51;100.00
63665;BME280;49820;33.966;73.390;2023-07-29T14:11:40;78402.00;;;17.20;100.00
63665;BME280;49820;33.966;73.390;2023-07-29T14:14:12;78412.06;;;17.21;100.00
63665;BME280;49820;33.966;73.390;2023-07-29T14:16:42;78347.34;;;16.66;100.00
63665;BME280;49820;33.966;73.390;2023-07-29T14:19:11;78427.63;;;17.21;100.00
63665;BME280;49820;33.966;73.390;2023-07-29T14:21:40;78421.97;;;17.12;100.00
63665;BME280;49820;33.966;73.390;2023-07-29T14:24:09;78426.28;;;17.07;100.00
63665;BME280;49820;33.966;73.390;2023-07-29T14:26:38;78337.28;;;16.37;100.00
63665;BME280;49820;33.966;73.390;2023-07-29T14:29:07;78437.63;;;17.09;100.00
63665;BME280;49820;33.966;73.390;2023-07-29T14:31:36;78429.06;;;17.05;100.00
